createdAt,value
2022-09-27T00:01:14.044Z,1.58
2022-09-27T00:03:41.324Z,1.55
2022-09-27T00:06:25.991Z,1.25
2022-09-27T00:08:53.220Z,1.80
2022-09-27T00:11:41.217Z,1.58
2022-09-27T00:14:09.573Z,1.52
2022-09-27T00:16:38.054Z,2.80
2022-09-27T00:19:15.317Z,1.23
2022-09-27T00:21:43.499Z,1.95
2022-09-27T00:24:15.709Z,2.35
2022-09-27T00:26:43.392Z,1.50
2022-09-27T00:29:11.254Z,2.17
2022-09-27T00:31:38.565Z,1.98
2022-09-27T00:34:06.840Z,1.60
2022-09-27T00:36:34.508Z,1.87
2022-09-27T00:39:01.837Z,1.40
2022-09-27T00:41:34.409Z,2.12
2022-09-27T00:44:25.216Z,1.70
2022-09-27T00:47:04.285Z,1.90
2022-09-27T00:49:42.139Z,2.15
2022-09-27T00:52:16.088Z,1.52
2022-09-27T00:54:47.114Z,1.70
2022-09-27T00:57:14.148Z,1.70
2022-09-27T00:59:49.888Z,1.48
2022-09-27T01:02:16.954Z,1.48
2022-09-27T01:04:45.572Z,1.50
2022-09-27T01:07:12.460Z,1.55
2022-09-27T01:09:39.594Z,1.45
2022-09-27T01:12:38.964Z,1.37
2022-09-27T01:15:15.711Z,1.50
2022-09-27T01:17:52.716Z,1.87
2022-09-27T01:20:44.748Z,2.00
2022-09-27T01:23:48.937Z,1.40
2022-09-27T01:26:34.422Z,2.87
2022-09-27T01:29:44.623Z,1.75
2022-09-27T01:32:38.210Z,1.55
2022-09-27T01:35:22.651Z,1.70
2022-09-27T01:38:04.737Z,1.45
2022-09-27T01:41:13.305Z,2.60
2022-09-27T01:44:23.550Z,1.70
2022-09-27T01:46:58.935Z,1.33
2022-09-27T01:49:41.378Z,1.15
2022-09-27T01:52:11.585Z,1.45
2022-09-27T01:54:48.525Z,1.30
2022-09-27T01:57:22.486Z,1.73
2022-09-27T02:00:02.213Z,1.25
2022-09-27T02:02:32.434Z,1.30
2022-09-27T02:05:02.769Z,1.35
2022-09-27T02:07:35.342Z,1.02
2022-09-27T02:10:29.869Z,1.00
2022-09-27T02:13:29.042Z,1.62
2022-09-27T02:16:16.915Z,1.17
2022-09-27T02:18:43.760Z,1.67
2022-09-27T02:21:15.010Z,1.10
2022-09-27T02:23:48.768Z,1.12
2022-09-27T02:26:21.967Z,1.33
2022-09-27T02:29:07.457Z,1.30
2022-09-27T02:31:34.628Z,1.10
2022-09-27T02:34:12.995Z,1.17
2022-09-27T02:36:40.739Z,1.50
2022-09-27T02:39:07.960Z,1.42
2022-09-27T02:41:34.995Z,1.55
2022-09-27T02:44:10.194Z,1.37
2022-09-27T02:46:43.039Z,1.20
2022-09-27T02:49:42.308Z,1.60
2022-09-27T02:52:11.973Z,1.25
2022-09-27T02:55:01.364Z,1.52
2022-09-27T02:57:52.697Z,1.70
2022-09-27T03:00:31.271Z,1.20
2022-09-27T03:03:26.482Z,1.10
2022-09-27T03:06:07.855Z,1.75
2022-09-27T03:08:35.472Z,1.87
2022-09-27T03:11:02.420Z,1.15
2022-09-27T03:13:29.407Z,1.58
2022-09-27T03:16:01.260Z,1.33
2022-09-27T03:18:28.531Z,1.85
2022-09-27T03:20:55.505Z,1.30
2022-09-27T03:23:22.392Z,1.25
2022-09-27T03:25:49.446Z,1.40
2022-09-27T03:28:16.708Z,1.30
2022-09-27T03:30:45.628Z,1.12
2022-09-27T03:33:13.057Z,1.20
2022-09-27T03:35:41.967Z,1.10
2022-09-27T03:38:09.797Z,1.58
2022-09-27T03:40:36.877Z,1.23
2022-09-27T03:43:03.969Z,1.15
2022-09-27T03:45:30.974Z,1.20
2022-09-27T03:47:57.846Z,1.12
2022-09-27T03:50:25.646Z,0.77
2022-09-27T03:52:54.532Z,0.80
2022-09-27T03:55:21.488Z,0.75
2022-09-27T03:57:48.407Z,1.10
2022-09-27T04:00:15.743Z,1.08
2022-09-27T04:02:43.212Z,0.80
2022-09-27T04:05:10.947Z,0.95
2022-09-27T04:07:37.954Z,1.12
2022-09-27T04:10:05.335Z,0.93
2022-09-27T04:12:33.157Z,1.12
2022-09-27T04:15:00.556Z,1.00
2022-09-27T04:17:27.682Z,1.10
2022-09-27T04:19:54.681Z,0.80
2022-09-27T04:22:21.696Z,0.73
2022-09-27T04:24:48.646Z,0.98
2022-09-27T04:27:16.474Z,1.37
2022-09-27T04:29:45.828Z,1.10
2022-09-27T04:32:13.925Z,1.00
2022-09-27T04:34:59.793Z,1.85
2022-09-27T04:37:27.434Z,0.68
2022-09-27T04:39:54.318Z,1.15
2022-09-27T04:42:21.202Z,1.02
2022-09-27T04:44:48.143Z,1.15
2022-09-27T04:47:15.166Z,1.00
2022-09-27T04:49:42.121Z,0.62
2022-09-27T04:52:09.175Z,0.80
2022-09-27T04:54:36.551Z,0.70
2022-09-27T04:57:03.898Z,0.80
2022-09-27T04:59:31.291Z,0.70
2022-09-27T05:02:01.251Z,0.80
2022-09-27T05:04:28.158Z,0.70
2022-09-27T05:06:57.217Z,0.60
2022-09-27T05:09:24.385Z,0.57
2022-09-27T05:11:51.259Z,0.60
2022-09-27T05:14:18.326Z,1.37
2022-09-27T05:16:45.306Z,0.65
2022-09-27T05:19:12.231Z,0.50
2022-09-27T05:21:39.355Z,0.52
2022-09-27T05:24:06.374Z,0.60
2022-09-27T05:26:33.308Z,0.70
2022-09-27T05:29:00.323Z,0.82
2022-09-27T05:31:27.308Z,1.00
2022-09-27T05:33:54.271Z,0.80
2022-09-27T05:36:21.545Z,1.00
2022-09-27T05:38:49.543Z,1.00
2022-09-27T05:41:17.227Z,0.88
2022-09-27T05:43:46.404Z,0.77
2022-09-27T05:46:13.488Z,0.90
2022-09-27T05:48:40.450Z,0.90
2022-09-27T05:51:07.532Z,1.33
2022-09-27T05:53:34.596Z,1.02
2022-09-27T05:56:03.482Z,1.50
2022-09-27T05:58:30.655Z,1.20
2022-09-27T06:00:58.014Z,1.23
2022-09-27T06:03:24.971Z,1.00
2022-09-27T06:05:52.304Z,1.10
2022-09-27T06:08:20.506Z,1.00
2022-09-27T06:10:48.050Z,1.00
2022-09-27T06:13:16.595Z,1.02
2022-09-27T06:15:46.454Z,1.17
2022-09-27T06:18:16.369Z,0.70
2022-09-27T06:20:43.522Z,1.95
2022-09-27T06:23:20.010Z,1.05
2022-09-27T06:25:47.498Z,1.50
2022-09-27T06:28:15.229Z,0.82
2022-09-27T06:30:44.836Z,0.93
2022-09-27T06:33:13.699Z,0.90
2022-09-27T06:35:42.571Z,1.10
2022-09-27T06:38:13.013Z,1.20
2022-09-27T06:40:40.584Z,1.00
2022-09-27T06:43:10.531Z,1.00
2022-09-27T06:45:38.391Z,1.12
2022-09-27T06:48:07.342Z,0.80
2022-09-27T06:50:36.100Z,0.90
2022-09-27T06:53:04.786Z,0.85
2022-09-27T06:55:31.965Z,0.93
2022-09-27T06:58:19.486Z,0.70
2022-09-27T07:00:53.433Z,0.88
2022-09-27T07:03:35.504Z,1.15
2022-09-27T07:06:06.595Z,0.85
2022-09-27T07:08:36.074Z,0.62
2022-09-27T07:11:06.048Z,0.82
2022-09-27T07:13:34.603Z,0.65
2022-09-27T07:16:02.169Z,0.73
2022-09-27T07:18:29.658Z,1.35
2022-09-27T07:21:00.248Z,0.90
2022-09-27T07:23:28.185Z,0.95
2022-09-27T07:25:55.320Z,0.65
2022-09-27T07:28:22.659Z,0.85
2022-09-27T07:30:54.728Z,0.80
2022-09-27T07:33:21.650Z,1.20
2022-09-27T07:35:48.508Z,0.82
2022-09-27T07:38:16.609Z,0.68
2022-09-27T07:40:44.242Z,0.70
2022-09-27T07:43:12.339Z,1.05
2022-09-27T07:45:39.734Z,0.70
2022-09-27T07:48:14.286Z,0.60
2022-09-27T07:50:41.206Z,0.60
2022-09-27T07:53:08.210Z,0.60
2022-09-27T07:55:35.162Z,0.70
2022-09-27T07:58:07.733Z,0.50
2022-09-27T08:00:34.971Z,0.50
2022-09-27T08:03:11.279Z,0.43
2022-09-27T08:05:38.757Z,0.60
2022-09-27T08:08:05.961Z,0.50
2022-09-27T08:10:34.078Z,0.55
2022-09-27T08:13:05.137Z,0.57
2022-09-27T08:15:32.742Z,0.68
2022-09-27T08:17:59.638Z,0.77
2022-09-27T08:20:26.538Z,0.52
2022-09-27T08:22:53.803Z,0.70
2022-09-27T08:25:22.668Z,0.43
2022-09-27T08:27:57.796Z,0.60
2022-09-27T08:30:25.742Z,0.60
2022-09-27T08:33:00.597Z,0.50
2022-09-27T08:35:29.010Z,0.60
2022-09-27T08:37:59.091Z,0.52
2022-09-27T08:40:40.606Z,0.90
2022-09-27T08:43:19.065Z,0.60
2022-09-27T08:45:49.044Z,0.80
2022-09-27T08:48:17.795Z,0.80
2022-09-27T08:50:47.033Z,0.80
2022-09-27T08:53:13.905Z,0.82
2022-09-27T08:55:48.320Z,0.70
2022-09-27T08:58:37.365Z,0.90
2022-09-27T09:01:06.858Z,0.90
2022-09-27T09:03:44.022Z,0.98
2022-09-27T09:06:32.307Z,0.80
2022-09-27T09:09:32.454Z,0.62
2022-09-27T09:12:32.924Z,0.80
2022-09-27T09:15:31.740Z,1.10
2022-09-27T09:18:26.511Z,1.08
2022-09-27T09:21:06.027Z,0.60
2022-09-27T09:23:49.955Z,0.70
2022-09-27T09:26:38.781Z,0.82
2022-09-27T09:29:29.480Z,0.95
2022-09-27T09:32:17.588Z,1.40
2022-09-27T09:34:51.421Z,0.77
2022-09-27T09:37:36.625Z,0.70
2022-09-27T09:40:09.617Z,0.50
2022-09-27T09:42:43.182Z,0.90
2022-09-27T09:45:21.265Z,0.82
2022-09-27T09:47:58.180Z,0.50
2022-09-27T09:50:28.819Z,0.70
2022-09-27T09:53:13.081Z,1.02
2022-09-27T09:55:42.717Z,0.82
2022-09-27T09:58:37.036Z,0.62
2022-09-27T10:01:37.444Z,0.80
2022-09-27T10:04:04.868Z,0.60
2022-09-27T10:06:32.359Z,0.52
2022-09-27T10:09:00.217Z,0.80
2022-09-27T10:11:35.608Z,0.60
2022-09-27T10:14:02.643Z,0.57
2022-09-27T10:16:29.681Z,0.90
2022-09-27T10:19:02.225Z,0.80
2022-09-27T10:21:30.790Z,0.65
2022-09-27T10:24:06.582Z,0.43
2022-09-27T10:26:33.881Z,0.40
2022-09-27T10:29:22.851Z,0.70
2022-09-27T10:31:50.795Z,0.50
2022-09-27T10:34:30.593Z,0.30
2022-09-27T10:37:06.106Z,0.40
2022-09-27T10:39:33.809Z,0.40
2022-09-27T10:42:00.825Z,0.40
2022-09-27T10:44:32.028Z,0.35
2022-09-27T10:47:09.268Z,0.35
2022-09-27T10:49:39.512Z,0.73
2022-09-27T10:52:14.243Z,0.40
2022-09-27T10:54:42.212Z,0.40
2022-09-27T10:57:15.728Z,0.70
2022-09-27T10:59:46.152Z,0.50
2022-09-27T11:02:27.259Z,0.50
2022-09-27T11:05:13.871Z,0.47
2022-09-27T11:08:20.656Z,0.52
2022-09-27T11:11:06.879Z,0.65
2022-09-27T11:13:35.671Z,0.52
2022-09-27T11:16:29.021Z,0.70
2022-09-27T11:19:19.001Z,0.30
2022-09-27T11:22:23.213Z,0.50
2022-09-27T11:25:08.724Z,0.60
2022-09-27T11:28:07.847Z,0.45
2022-09-27T11:30:55.653Z,0.50
2022-09-27T11:33:41.627Z,0.30
2022-09-27T11:36:31.398Z,0.60
2022-09-27T11:39:09.704Z,0.50
2022-09-27T11:42:14.977Z,0.40
2022-09-27T11:44:49.808Z,0.35
2022-09-27T11:47:21.300Z,0.37
2022-09-27T11:50:13.425Z,0.75
2022-09-27T11:52:43.219Z,0.40
2022-09-27T11:55:24.080Z,0.93
2022-09-27T11:58:20.788Z,0.32
2022-09-27T12:00:59.885Z,0.70
2022-09-27T12:03:29.527Z,0.50
2022-09-27T12:06:08.512Z,0.30
2022-09-27T12:09:03.133Z,0.40
2022-09-27T12:11:53.798Z,0.80
2022-09-27T12:14:33.674Z,0.60
2022-09-27T12:17:05.063Z,0.62
2022-09-27T12:19:39.836Z,0.65
2022-09-27T12:22:13.163Z,0.68
2022-09-27T12:24:40.735Z,1.42
2022-09-27T12:27:15.704Z,0.62
2022-09-27T12:29:45.313Z,0.70
2022-09-27T12:32:25.198Z,1.12
2022-09-27T12:35:00.319Z,0.70
2022-09-27T12:37:45.871Z,0.82
2022-09-27T12:40:25.074Z,0.80
2022-09-27T12:43:19.588Z,0.52
2022-09-27T12:46:05.354Z,0.60
2022-09-27T12:48:54.628Z,0.77
2022-09-27T12:51:23.996Z,0.52
2022-09-27T12:54:05.328Z,1.00
2022-09-27T12:56:41.488Z,0.60
2022-09-27T12:59:39.110Z,0.60
2022-09-27T13:02:39.133Z,0.55
2022-09-27T13:05:21.136Z,0.68
2022-09-27T13:08:25.489Z,0.50
2022-09-27T13:11:09.098Z,0.50
2022-09-27T13:13:37.763Z,0.40
2022-09-27T13:16:05.537Z,0.30
2022-09-27T13:18:53.511Z,0.68
2022-09-27T13:21:51.671Z,0.50
2022-09-27T13:24:38.108Z,0.62
2022-09-27T13:27:25.959Z,0.60
2022-09-27T13:30:13.083Z,0.80
2022-09-27T13:32:41.037Z,0.30
2022-09-27T13:35:27.202Z,0.55
2022-09-27T13:38:01.693Z,0.60
2022-09-27T13:40:36.477Z,0.93
2022-09-27T13:43:06.693Z,0.55
2022-09-27T13:45:43.918Z,0.62
2022-09-27T13:48:18.927Z,0.45
2022-09-27T13:50:51.745Z,0.50
2022-09-27T13:54:01.490Z,0.50
2022-09-27T13:56:40.236Z,0.50
2022-09-27T13:59:31.994Z,0.20
2022-09-27T14:02:09.779Z,0.35
2022-09-27T14:04:48.416Z,0.28
2022-09-27T14:07:19.089Z,0.70
2022-09-27T14:09:52.048Z,0.70
2022-09-27T14:12:22.531Z,1.35
2022-09-27T14:14:50.899Z,0.82
2022-09-27T14:17:17.912Z,0.75
2022-09-27T14:19:46.448Z,0.80
2022-09-27T14:22:21.386Z,0.85
2022-09-27T14:24:53.700Z,0.90
2022-09-27T14:27:20.547Z,0.80
2022-09-27T14:30:28.231Z,0.70
2022-09-27T14:33:01.645Z,1.00
2022-09-27T14:35:49.499Z,0.88
2022-09-27T14:38:37.018Z,0.95
2022-09-27T14:41:10.733Z,1.62
2022-09-27T14:43:44.096Z,0.40
2022-09-27T14:46:28.854Z,0.50
2022-09-27T14:48:56.687Z,0.80
2022-09-27T14:51:32.063Z,0.62
2022-09-27T14:54:05.665Z,0.70
2022-09-27T14:56:37.378Z,1.30
2022-09-27T14:59:16.219Z,0.60
2022-09-27T15:01:52.720Z,0.68
2022-09-27T15:04:22.190Z,0.50
2022-09-27T15:06:49.871Z,0.80
2022-09-27T15:09:18.526Z,0.60
2022-09-27T15:11:51.567Z,0.50
2022-09-27T15:14:21.023Z,0.50
2022-09-27T15:16:50.827Z,0.52
2022-09-27T15:19:22.594Z,0.70
2022-09-27T15:21:49.575Z,0.50
2022-09-27T15:24:47.659Z,0.60
2022-09-27T15:27:25.772Z,1.12
2022-09-27T15:29:55.579Z,0.60
2022-09-27T15:32:24.821Z,0.50
2022-09-27T15:34:52.615Z,0.75
2022-09-27T15:37:35.519Z,0.40
2022-09-27T15:40:20.930Z,0.70
2022-09-27T15:42:59.494Z,0.50
2022-09-27T15:45:31.553Z,0.73
2022-09-27T15:48:13.294Z,0.62
2022-09-27T15:50:41.375Z,0.60
2022-09-27T15:53:12.088Z,0.30
2022-09-27T15:55:45.141Z,0.98
2022-09-27T15:58:19.304Z,0.40
2022-09-27T16:01:02.810Z,0.32
2022-09-27T16:03:30.146Z,0.60
2022-09-27T16:05:58.133Z,0.68
2022-09-27T16:08:26.357Z,0.60
2022-09-27T16:10:55.885Z,0.40
2022-09-27T16:13:26.811Z,1.05
2022-09-27T16:15:55.946Z,0.75
2022-09-27T16:18:25.141Z,0.60
2022-09-27T16:20:55.094Z,0.70
2022-09-27T16:23:22.007Z,0.60
2022-09-27T16:25:48.887Z,0.50
2022-09-27T16:28:15.768Z,0.93
2022-09-27T16:30:42.682Z,0.40
2022-09-27T16:33:09.593Z,0.62
2022-09-27T16:35:41.175Z,0.50
2022-09-27T16:38:08.181Z,0.70
2022-09-27T16:40:36.155Z,1.08
2022-09-27T16:43:07.382Z,0.60
2022-09-27T16:45:35.758Z,0.62
2022-09-27T16:48:03.573Z,0.70
2022-09-27T16:50:49.343Z,0.50
2022-09-27T16:53:16.706Z,0.30
2022-09-27T16:55:43.655Z,0.60
2022-09-27T16:58:10.602Z,1.42
2022-09-27T17:00:37.712Z,0.60
2022-09-27T17:03:04.861Z,0.50
2022-09-27T17:05:31.988Z,0.52
2022-09-27T17:07:59.192Z,0.93
2022-09-27T17:10:26.353Z,0.60
2022-09-27T17:12:54.893Z,0.55
2022-09-27T17:15:22.485Z,0.80
2022-09-27T17:17:50.536Z,0.70
2022-09-27T17:20:18.158Z,0.60
2022-09-27T17:22:45.030Z,0.50
2022-09-27T17:25:11.973Z,0.50
2022-09-27T17:27:39.028Z,0.50
2022-09-27T17:30:07.008Z,0.88
2022-09-27T17:32:34.977Z,0.50
2022-09-27T17:35:02.753Z,0.75
2022-09-27T17:37:30.484Z,0.90
2022-09-27T17:39:57.813Z,0.55
2022-09-27T17:42:25.461Z,1.02
2022-09-27T17:44:52.859Z,0.50
2022-09-27T17:47:38.251Z,0.60
2022-09-27T17:50:24.075Z,0.50
2022-09-27T17:52:52.108Z,0.60
2022-09-27T17:55:19.052Z,0.55
2022-09-27T17:57:49.659Z,0.50
2022-09-27T18:00:18.011Z,0.60
2022-09-27T18:02:47.845Z,0.60
2022-09-27T18:05:14.936Z,0.70
2022-09-27T18:07:42.614Z,0.65
2022-09-27T18:10:09.638Z,0.60
2022-09-27T18:12:36.806Z,0.60
2022-09-27T18:15:04.301Z,0.47
2022-09-27T18:17:31.311Z,0.32
2022-09-27T18:20:00.057Z,0.62
2022-09-27T18:22:31.250Z,0.32
2022-09-27T18:24:58.270Z,0.40
2022-09-27T18:27:25.170Z,0.70
2022-09-27T18:29:52.656Z,0.60
2022-09-27T18:32:19.614Z,0.60
2022-09-27T18:34:46.531Z,0.93
2022-09-27T18:37:13.620Z,0.40
2022-09-27T18:39:40.978Z,0.40
2022-09-27T18:42:09.123Z,0.50
2022-09-27T18:44:36.120Z,0.60
2022-09-27T18:47:03.183Z,0.90
2022-09-27T18:49:33.799Z,0.88
2022-09-27T18:52:01.340Z,0.88
2022-09-27T18:54:28.315Z,1.00
2022-09-27T18:56:55.277Z,0.82
2022-09-27T18:59:23.974Z,0.95
2022-09-27T19:01:51.318Z,1.02
2022-09-27T19:04:24.257Z,1.00
2022-09-27T19:06:55.832Z,0.62
2022-09-27T19:09:23.598Z,0.55
2022-09-27T19:11:50.570Z,0.62
2022-09-27T19:14:20.007Z,0.80
2022-09-27T19:16:48.227Z,0.80
2022-09-27T19:19:16.884Z,0.70
2022-09-27T19:21:44.184Z,0.82
2022-09-27T19:24:11.863Z,1.12
2022-09-27T19:26:38.856Z,0.70
2022-09-27T19:29:06.629Z,1.05
2022-09-27T19:31:35.740Z,1.42
2022-09-27T19:34:03.760Z,0.85
2022-09-27T19:36:30.873Z,0.40
2022-09-27T19:39:02.244Z,0.55
2022-09-27T19:41:29.369Z,0.90
2022-09-27T19:43:57.193Z,0.80
2022-09-27T19:46:25.542Z,1.00
2022-09-27T19:48:53.006Z,0.70
2022-09-27T19:51:25.410Z,1.27
2022-09-27T19:53:53.436Z,1.70
2022-09-27T19:56:21.552Z,1.85
2022-09-27T19:58:48.617Z,1.77
2022-09-27T20:01:20.336Z,1.35
2022-09-27T20:03:49.044Z,1.40
2022-09-27T20:06:20.569Z,1.00
2022-09-27T20:08:50.450Z,0.93
2022-09-27T20:11:19.644Z,0.90
2022-09-27T20:13:47.178Z,0.85
2022-09-27T20:16:15.340Z,1.00
2022-09-27T20:18:47.442Z,1.08
2022-09-27T20:21:15.328Z,0.65
2022-09-27T20:23:43.143Z,1.00
2022-09-27T20:26:13.253Z,1.42
2022-09-27T20:28:45.687Z,1.00
2022-09-27T20:31:14.909Z,0.90
2022-09-27T20:33:43.784Z,0.80
2022-09-27T20:36:26.229Z,0.93
2022-09-27T20:39:02.773Z,1.00
2022-09-27T20:41:32.752Z,0.95
2022-09-27T20:44:03.477Z,0.73
2022-09-27T20:46:31.015Z,1.02
2022-09-27T20:49:00.601Z,1.10
2022-09-27T20:51:28.716Z,0.80
2022-09-27T20:53:55.671Z,0.60
2022-09-27T20:56:25.444Z,0.82
2022-09-27T20:58:54.643Z,0.85
2022-09-27T21:01:23.544Z,0.60
2022-09-27T21:04:02.053Z,0.80
2022-09-27T21:06:30.220Z,0.77
2022-09-27T21:08:58.197Z,0.82
2022-09-27T21:11:25.848Z,0.90
2022-09-27T21:13:54.530Z,0.90
2022-09-27T21:16:26.751Z,0.90
2022-09-27T21:18:55.666Z,0.73
2022-09-27T21:21:24.199Z,0.80
2022-09-27T21:24:00.052Z,0.47
2022-09-27T21:26:29.783Z,0.80
2022-09-27T21:28:59.091Z,0.70
2022-09-27T21:31:32.047Z,0.62
2022-09-27T21:34:01.310Z,0.68
2022-09-27T21:36:30.667Z,0.77
2022-09-27T21:38:58.435Z,0.60
2022-09-27T21:41:26.070Z,0.60
2022-09-27T21:43:53.605Z,0.50
2022-09-27T21:46:26.144Z,0.60
2022-09-27T21:48:56.834Z,0.50
2022-09-27T21:51:26.317Z,0.60
2022-09-27T21:53:58.752Z,0.90
2022-09-27T21:56:30.130Z,0.70
2022-09-27T21:58:57.032Z,0.57
2022-09-27T22:01:27.846Z,0.60
2022-09-27T22:03:55.621Z,0.40
2022-09-27T22:06:24.913Z,0.60
2022-09-27T22:08:52.900Z,0.80
2022-09-27T22:11:22.627Z,0.80
2022-09-27T22:13:49.787Z,0.68
2022-09-27T22:16:18.927Z,0.70
2022-09-27T22:18:48.535Z,0.30
2022-09-27T22:21:18.400Z,0.57
2022-09-27T22:23:45.685Z,0.60
2022-09-27T22:26:20.082Z,0.65
2022-09-27T22:28:47.669Z,0.68
2022-09-27T22:31:16.410Z,0.75
2022-09-27T22:33:43.511Z,0.62
2022-09-27T22:36:10.426Z,0.90
2022-09-27T22:38:37.283Z,0.50
2022-09-27T22:41:04.432Z,0.60
2022-09-27T22:43:31.761Z,0.70
2022-09-27T22:46:02.823Z,0.50
2022-09-27T22:48:31.296Z,0.25
2022-09-27T22:50:59.766Z,0.40
2022-09-27T22:53:28.196Z,0.55
2022-09-27T22:56:12.479Z,0.32
2022-09-27T22:58:39.480Z,0.50
2022-09-27T23:01:13.183Z,0.47
2022-09-27T23:03:40.348Z,0.30
2022-09-27T23:06:07.603Z,0.50
2022-09-27T23:08:36.010Z,0.25
2022-09-27T23:11:14.047Z,0.50
2022-09-27T23:13:42.351Z,0.60
2022-09-27T23:16:11.808Z,0.50
2022-09-27T23:18:39.658Z,0.62
2022-09-27T23:21:09.030Z,0.40
2022-09-27T23:23:38.051Z,0.60
2022-09-27T23:26:07.524Z,0.70
2022-09-27T23:28:35.232Z,0.50
2022-09-27T23:31:29.881Z,0.55
2022-09-27T23:33:58.589Z,0.50
2022-09-27T23:36:27.596Z,0.50
2022-09-27T23:38:57.912Z,0.73
2022-09-27T23:41:24.931Z,0.90
2022-09-27T23:43:53.424Z,0.75
2022-09-27T23:46:21.663Z,0.60
2022-09-27T23:48:48.728Z,0.73
2022-09-27T23:51:15.827Z,0.77
2022-09-27T23:53:42.988Z,0.77
2022-09-27T23:56:15.569Z,0.68
2022-09-27T23:58:45.108Z,0.60
